sensor_id;sensor_type;location;lat;lon;timestamp;temperature;humidity
51739;DHT22;37815;52.692;6.226;2022-07-18T00:03:29;21.00;80.60
51739;DHT22;37815;52.692;6.226;2022-07-18T00:08:29;21.00;80.70
51739;DHT22;37815;52.692;6.226;2022-07-18T00:13:30;21.00;80.70
51739;DHT22;37815;52.692;6.226;2022-07-18T00:18:31;21.00;80.80
51739;DHT22;37815;52.692;6.226;2022-07-18T00:23:32;20.90;80.80
51739;DHT22;37815;52.692;6.226;2022-07-18T00:28:32;20.90;80.80
51739;DHT22;37815;52.692;6.226;2022-07-18T00:33:33;20.90;80.90
51739;DHT22;37815;52.692;6.226;2022-07-18T00:38:34;20.80;80.90
51739;DHT22;37815;52.692;6.226;2022-07-18T00:43:34;20.80;80.90
51739;DHT22;37815;52.692;6.226;2022-07-18T00:48:35;20.70;80.90
51739;DHT22;37815;52.692;6.226;2022-07-18T00:53:36;20.70;80.90
51739;DHT22;37815;52.692;6.226;2022-07-18T00:58:37;20.70;81.00
51739;DHT22;37815;52.692;6.226;2022-07-18T01:03:38;20.70;81.00
51739;DHT22;37815;52.692;6.226;2022-07-18T01:08:42;20.70;81.10
51739;DHT22;37815;52.692;6.226;2022-07-18T01:13:43;20.60;81.10
51739;DHT22;37815;52.692;6.226;2022-07-18T01:18:49;20.60;81.20
51739;DHT22;37815;52.692;6.226;2022-07-18T01:23:50;20.60;81.20
51739;DHT22;37815;52.692;6.226;2022-07-18T01:28:50;20.50;81.10
51739;DHT22;37815;52.692;6.226;2022-07-18T01:33:54;20.50;81.20
51739;DHT22;37815;52.692;6.226;2022-07-18T01:38:55;20.50;81.30
51739;DHT22;37815;52.692;6.226;2022-07-18T01:43:55;20.50;81.30
51739;DHT22;37815;52.692;6.226;2022-07-18T01:48:56;20.40;81.30
51739;DHT22;37815;52.692;6.226;2022-07-18T01:53:57;20.40;81.30
51739;DHT22;37815;52.692;6.226;2022-07-18T01:59:02;20.40;81.30
51739;DHT22;37815;52.692;6.226;2022-07-18T02:04:03;20.30;81.30
51739;DHT22;37815;52.692;6.226;2022-07-18T02:09:05;20.30;81.30
51739;DHT22;37815;52.692;6.226;2022-07-18T02:14:06;20.30;81.30
51739;DHT22;37815;52.692;6.226;2022-07-18T02:19:07;20.20;81.20
51739;DHT22;37815;52.692;6.226;2022-07-18T02:24:08;20.20;81.20
51739;DHT22;37815;52.692;6.226;2022-07-18T02:29:08;20.20;81.30
51739;DHT22;37815;52.692;6.226;2022-07-18T02:34:09;20.20;81.30
51739;DHT22;37815;52.692;6.226;2022-07-18T02:39:10;20.20;81.30
51739;DHT22;37815;52.692;6.226;2022-07-18T02:44:11;20.10;81.20
51739;DHT22;37815;52.692;6.226;2022-07-18T02:49:12;20.10;81.30
51739;DHT22;37815;52.692;6.226;2022-07-18T02:54:27;20.10;81.30
51739;DHT22;37815;52.692;6.226;2022-07-18T02:59:29;20.00;81.20
51739;DHT22;37815;52.692;6.226;2022-07-18T03:04:30;20.00;81.20
51739;DHT22;37815;52.692;6.226;2022-07-18T03:09:31;20.00;81.30
51739;DHT22;37815;52.692;6.226;2022-07-18T03:14:33;20.00;81.30
51739;DHT22;37815;52.692;6.226;2022-07-18T03:19:34;20.00;81.30
51739;DHT22;37815;52.692;6.226;2022-07-18T03:24:34;19.90;81.20
51739;DHT22;37815;52.692;6.226;2022-07-18T03:29:35;19.90;81.30
51739;DHT22;37815;52.692;6.226;2022-07-18T03:34:36;19.90;81.30
51739;DHT22;37815;52.692;6.226;2022-07-18T03:39:36;19.90;81.30
51739;DHT22;37815;52.692;6.226;2022-07-18T03:44:37;19.90;81.30
51739;DHT22;37815;52.692;6.226;2022-07-18T03:49:38;19.90;81.30
51739;DHT22;37815;52.692;6.226;2022-07-18T03:54:38;19.80;81.20
51739;DHT22;37815;52.692;6.226;2022-07-18T03:59:39;19.80;81.80
51739;DHT22;37815;52.692;6.226;2022-07-18T04:04:40;19.80;81.20
51739;DHT22;37815;52.692;6.226;2022-07-18T04:09:40;19.70;81.80
51739;DHT22;37815;52.692;6.226;2022-07-18T04:14:41;19.70;81.10
51739;DHT22;37815;52.692;6.226;2022-07-18T04:19:42;19.70;81.10
51739;DHT22;37815;52.692;6.226;2022-07-18T04:24:42;19.70;81.10
51739;DHT22;37815;52.692;6.226;2022-07-18T04:29:43;19.70;81.10
51739;DHT22;37815;52.692;6.226;2022-07-18T04:34:44;19.70;81.10
51739;DHT22;37815;52.692;6.226;2022-07-18T04:39:45;19.70;81.10
51739;DHT22;37815;52.692;6.226;2022-07-18T04:44:45;19.70;81.10
51739;DHT22;37815;52.692;6.226;2022-07-18T04:49:46;19.60;81.00
51739;DHT22;37815;52.692;6.226;2022-07-18T04:54:47;19.60;81.00
51739;DHT22;37815;52.692;6.226;2022-07-18T04:59:47;19.70;81.00
51739;DHT22;37815;52.692;6.226;2022-07-18T05:04:48;19.60;80.90
51739;DHT22;37815;52.692;6.226;2022-07-18T05:09:49;19.60;80.80
51739;DHT22;37815;52.692;6.226;2022-07-18T05:14:50;19.60;80.70
51739;DHT22;37815;52.692;6.226;2022-07-18T05:19:51;19.70;80.70
51739;DHT22;37815;52.692;6.226;2022-07-18T05:24:52;19.60;80.60
51739;DHT22;37815;52.692;6.226;2022-07-18T05:29:52;19.60;80.60
51739;DHT22;37815;52.692;6.226;2022-07-18T05:34:53;19.40;80.40
51739;DHT22;37815;52.692;6.226;2022-07-18T05:39:54;19.60;80.50
51739;DHT22;37815;52.692;6.226;2022-07-18T05:44:55;19.70;80.40
51739;DHT22;37815;52.692;6.226;2022-07-18T05:49:55;19.60;80.30
51739;DHT22;37815;52.692;6.226;2022-07-18T05:54:56;19.60;80.20
51739;DHT22;37815;52.692;6.226;2022-07-18T05:59:57;19.60;80.20
51739;DHT22;37815;52.692;6.226;2022-07-18T06:04:58;19.70;80.10
51739;DHT22;37815;52.692;6.226;2022-07-18T06:09:59;19.70;80.10
51739;DHT22;37815;52.692;6.226;2022-07-18T06:15:00;19.70;80.00
51739;DHT22;37815;52.692;6.226;2022-07-18T06:20:02;19.70;80.00
51739;DHT22;37815;52.692;6.226;2022-07-18T06:25:06;19.70;80.00
51739;DHT22;37815;52.692;6.226;2022-07-18T06:30:07;19.70;79.90
51739;DHT22;37815;52.692;6.226;2022-07-18T06:35:10;19.70;79.90
51739;DHT22;37815;52.692;6.226;2022-07-18T06:40:11;19.70;79.90
51739;DHT22;37815;52.692;6.226;2022-07-18T06:45:12;19.70;79.90
51739;DHT22;37815;52.692;6.226;2022-07-18T06:50:13;19.80;79.90
51739;DHT22;37815;52.692;6.226;2022-07-18T06:55:14;19.80;79.80
51739;DHT22;37815;52.692;6.226;2022-07-18T07:00:15;19.80;79.80
51739;DHT22;37815;52.692;6.226;2022-07-18T07:05:17;19.80;79.70
51739;DHT22;37815;52.692;6.226;2022-07-18T07:10:18;19.90;79.60
51739;DHT22;37815;52.692;6.226;2022-07-18T07:15:21;19.90;79.60
51739;DHT22;37815;52.692;6.226;2022-07-18T07:20:22;19.90;79.50
51739;DHT22;37815;52.692;6.226;2022-07-18T07:25:25;20.00;79.60
51739;DHT22;37815;52.692;6.226;2022-07-18T07:30:26;20.00;79.50
51739;DHT22;37815;52.692;6.226;2022-07-18T07:35:27;20.00;79.40
51739;DHT22;37815;52.692;6.226;2022-07-18T07:40:29;20.00;79.50
51739;DHT22;37815;52.692;6.226;2022-07-18T07:45:30;20.00;79.60
51739;DHT22;37815;52.692;6.226;2022-07-18T07:50:31;20.10;79.60
51739;DHT22;37815;52.692;6.226;2022-07-18T07:55:31;20.20;79.70
51739;DHT22;37815;52.692;6.226;2022-07-18T08:00:35;20.30;79.50
51739;DHT22;37815;52.692;6.226;2022-07-18T08:05:45;20.40;79.40
51739;DHT22;37815;52.692;6.226;2022-07-18T08:10:46;20.40;78.70
51739;DHT22;37815;52.692;6.226;2022-07-18T08:15:48;20.50;78.60
51739;DHT22;37815;52.692;6.226;2022-07-18T08:20:49;20.60;78.30
51739;DHT22;37815;52.692;6.226;2022-07-18T08:25:49;20.80;77.90
51739;DHT22;37815;52.692;6.226;2022-07-18T08:30:50;20.90;78.00
51739;DHT22;37815;52.692;6.226;2022-07-18T08:35:51;21.00;77.60
51739;DHT22;37815;52.692;6.226;2022-07-18T08:40:52;21.20;77.10
51739;DHT22;37815;52.692;6.226;2022-07-18T08:46:03;21.30;76.90
51739;DHT22;37815;52.692;6.226;2022-07-18T08:51:05;21.60;76.70
51739;DHT22;37815;52.692;6.226;2022-07-18T08:56:06;21.80;76.30
51739;DHT22;37815;52.692;6.226;2022-07-18T09:01:07;21.80;76.20
51739;DHT22;37815;52.692;6.226;2022-07-18T09:06:12;21.90;76.20
51739;DHT22;37815;52.692;6.226;2022-07-18T09:11:13;22.00;75.80
51739;DHT22;37815;52.692;6.226;2022-07-18T09:16:14;22.20;75.40
51739;DHT22;37815;52.692;6.226;2022-07-18T09:21:20;22.30;74.80
51739;DHT22;37815;52.692;6.226;2022-07-18T09:26:41;22.40;73.70
51739;DHT22;37815;52.692;6.226;2022-07-18T09:31:49;22.50;73.10
51739;DHT22;37815;52.692;6.226;2022-07-18T09:36:54;22.80;72.50
51739;DHT22;37815;52.692;6.226;2022-07-18T09:42:16;23.00;72.00
51739;DHT22;37815;52.692;6.226;2022-07-18T09:47:17;23.10;71.70
51739;DHT22;37815;52.692;6.226;2022-07-18T09:52:19;23.20;71.80
51739;DHT22;37815;52.692;6.226;2022-07-18T09:57:24;23.40;71.60
51739;DHT22;37815;52.692;6.226;2022-07-18T10:02:25;23.60;70.70
51739;DHT22;37815;52.692;6.226;2022-07-18T10:07:26;23.60;69.90
51739;DHT22;37815;52.692;6.226;2022-07-18T10:12:28;23.70;69.80
51739;DHT22;37815;52.692;6.226;2022-07-18T10:17:31;23.90;70.10
51739;DHT22;37815;52.692;6.226;2022-07-18T10:22:40;24.10;69.20
51739;DHT22;37815;52.692;6.226;2022-07-18T10:32:50;24.30;67.70
51739;DHT22;37815;52.692;6.226;2022-07-18T10:38:08;24.50;68.50
51739;DHT22;37815;52.692;6.226;2022-07-18T10:53:57;24.90;66.40
51739;DHT22;37815;52.692;6.226;2022-07-18T10:58:58;25.10;64.30
51739;DHT22;37815;52.692;6.226;2022-07-18T11:04:29;25.10;65.30
51739;DHT22;37815;52.692;6.226;2022-07-18T11:09:40;25.00;63.00
51739;DHT22;37815;52.692;6.226;2022-07-18T11:20:23;25.50;62.80
51739;DHT22;37815;52.692;6.226;2022-07-18T11:25:26;25.80;63.10
51739;DHT22;37815;52.692;6.226;2022-07-18T11:30:28;26.00;64.60
51739;DHT22;37815;52.692;6.226;2022-07-18T11:35:29;26.10;63.50
51739;DHT22;37815;52.692;6.226;2022-07-18T11:40:30;26.10;63.20
51739;DHT22;37815;52.692;6.226;2022-07-18T11:45:31;26.30;62.60
51739;DHT22;37815;52.692;6.226;2022-07-18T11:50:36;26.40;62.70
51739;DHT22;37815;52.692;6.226;2022-07-18T11:55:38;26.10;62.10
51739;DHT22;37815;52.692;6.226;2022-07-18T12:00:40;26.10;63.30
51739;DHT22;37815;52.692;6.226;2022-07-18T12:05:46;25.90;63.70
51739;DHT22;37815;52.692;6.226;2022-07-18T12:27:23;25.30;64.40
51739;DHT22;37815;52.692;6.226;2022-07-18T12:32:26;25.20;65.10
51739;DHT22;37815;52.692;6.226;2022-07-18T12:37:28;25.10;65.70
51739;DHT22;37815;52.692;6.226;2022-07-18T12:42:40;25.10;65.80
51739;DHT22;37815;52.692;6.226;2022-07-18T12:47:41;24.70;65.30
51739;DHT22;37815;52.692;6.226;2022-07-18T12:52:42;25.10;66.00
51739;DHT22;37815;52.692;6.226;2022-07-18T12:57:43;25.30;66.10
51739;DHT22;37815;52.692;6.226;2022-07-18T13:02:44;25.20;66.30
51739;DHT22;37815;52.692;6.226;2022-07-18T13:07:45;25.20;66.40
51739;DHT22;37815;52.692;6.226;2022-07-18T13:12:46;25.30;66.40
51739;DHT22;37815;52.692;6.226;2022-07-18T13:17:48;25.30;66.40
51739;DHT22;37815;52.692;6.226;2022-07-18T13:22:52;25.30;66.40
51739;DHT22;37815;52.692;6.226;2022-07-18T13:27:53;25.40;66.40
51739;DHT22;37815;52.692;6.226;2022-07-18T13:32:54;25.50;66.20
51739;DHT22;37815;52.692;6.226;2022-07-18T13:37:55;25.60;66.20
51739;DHT22;37815;52.692;6.226;2022-07-18T13:42:56;25.60;66.30
51739;DHT22;37815;52.692;6.226;2022-07-18T13:47:57;25.60;66.30
51739;DHT22;37815;52.692;6.226;2022-07-18T13:52:57;25.70;66.30
51739;DHT22;37815;52.692;6.226;2022-07-18T13:57:58;25.90;66.30
51739;DHT22;37815;52.692;6.226;2022-07-18T14:02:59;26.00;66.40
51739;DHT22;37815;52.692;6.226;2022-07-18T14:08:00;26.10;66.40
51739;DHT22;37815;52.692;6.226;2022-07-18T14:13:01;26.20;66.50
51739;DHT22;37815;52.692;6.226;2022-07-18T14:18:02;26.30;66.60
51739;DHT22;37815;52.692;6.226;2022-07-18T14:23:06;26.40;66.50
51739;DHT22;37815;52.692;6.226;2022-07-18T14:28:06;26.50;66.40
51739;DHT22;37815;52.692;6.226;2022-07-18T14:33:07;26.60;66.60
51739;DHT22;37815;52.692;6.226;2022-07-18T14:38:08;26.60;66.60
51739;DHT22;37815;52.692;6.226;2022-07-18T14:43:09;26.60;66.80
51739;DHT22;37815;52.692;6.226;2022-07-18T14:48:09;26.70;66.90
51739;DHT22;37815;52.692;6.226;2022-07-18T14:53:10;26.80;66.90
51739;DHT22;37815;52.692;6.226;2022-07-18T14:58:11;26.90;66.80
51739;DHT22;37815;52.692;6.226;2022-07-18T15:03:12;27.00;66.70
51739;DHT22;37815;52.692;6.226;2022-07-18T15:08:13;27.10;66.70
51739;DHT22;37815;52.692;6.226;2022-07-18T15:13:16;27.20;66.80
51739;DHT22;37815;52.692;6.226;2022-07-18T15:18:16;27.30;66.80
51739;DHT22;37815;52.692;6.226;2022-07-18T15:23:17;27.40;66.80
51739;DHT22;37815;52.692;6.226;2022-07-18T15:28:18;27.50;66.70
51739;DHT22;37815;52.692;6.226;2022-07-18T15:33:19;27.60;66.70
51739;DHT22;37815;52.692;6.226;2022-07-18T15:38:21;27.70;66.70
51739;DHT22;37815;52.692;6.226;2022-07-18T15:43:22;27.80;66.90
51739;DHT22;37815;52.692;6.226;2022-07-18T15:48:23;27.80;66.90
51739;DHT22;37815;52.692;6.226;2022-07-18T15:53:24;27.90;67.00
51739;DHT22;37815;52.692;6.226;2022-07-18T15:58:25;28.00;66.90
51739;DHT22;37815;52.692;6.226;2022-07-18T16:03:26;28.00;67.00
51739;DHT22;37815;52.692;6.226;2022-07-18T16:08:27;28.00;67.30
51739;DHT22;37815;52.692;6.226;2022-07-18T16:13:28;27.90;67.50
51739;DHT22;37815;52.692;6.226;2022-07-18T16:18:35;27.90;67.60
51739;DHT22;37815;52.692;6.226;2022-07-18T16:23:36;27.90;67.80
51739;DHT22;37815;52.692;6.226;2022-07-18T16:28:36;27.90;68.00
51739;DHT22;37815;52.692;6.226;2022-07-18T16:33:37;27.80;68.20
51739;DHT22;37815;52.692;6.226;2022-07-18T16:38:38;27.80;68.40
51739;DHT22;37815;52.692;6.226;2022-07-18T16:43:39;27.80;68.50
51739;DHT22;37815;52.692;6.226;2022-07-18T16:48:40;27.80;68.60
51739;DHT22;37815;52.692;6.226;2022-07-18T16:53:41;27.80;68.80
51739;DHT22;37815;52.692;6.226;2022-07-18T16:58:42;27.70;69.00
51739;DHT22;37815;52.692;6.226;2022-07-18T17:03:43;27.70;69.20
51739;DHT22;37815;52.692;6.226;2022-07-18T17:08:44;27.70;69.30
51739;DHT22;37815;52.692;6.226;2022-07-18T17:13:45;27.60;68.20
51739;DHT22;37815;52.692;6.226;2022-07-18T17:18:46;27.60;67.30
51739;DHT22;37815;52.692;6.226;2022-07-18T17:23:47;27.60;66.40
51739;DHT22;37815;52.692;6.226;2022-07-18T17:28:48;27.60;65.80
51739;DHT22;37815;52.692;6.226;2022-07-18T17:33:49;27.60;65.80
51739;DHT22;37815;52.692;6.226;2022-07-18T17:38:51;27.60;65.60
51739;DHT22;37815;52.692;6.226;2022-07-18T17:43:52;27.60;65.40
51739;DHT22;37815;52.692;6.226;2022-07-18T17:48:53;27.60;65.50
51739;DHT22;37815;52.692;6.226;2022-07-18T17:53:54;27.50;65.70
51739;DHT22;37815;52.692;6.226;2022-07-18T17:58:55;27.50;65.80
51739;DHT22;37815;52.692;6.226;2022-07-18T18:03:56;27.50;65.30
51739;DHT22;37815;52.692;6.226;2022-07-18T18:08:57;27.50;65.50
51739;DHT22;37815;52.692;6.226;2022-07-18T18:13:58;27.50;65.50
51739;DHT22;37815;52.692;6.226;2022-07-18T18:18:59;27.40;65.60
51739;DHT22;37815;52.692;6.226;2022-07-18T18:24:00;27.30;65.50
51739;DHT22;37815;52.692;6.226;2022-07-18T18:29:01;27.20;66.60
51739;DHT22;37815;52.692;6.226;2022-07-18T18:34:02;27.00;66.80
51739;DHT22;37815;52.692;6.226;2022-07-18T18:39:03;27.00;67.70
51739;DHT22;37815;52.692;6.226;2022-07-18T18:44:04;26.90;68.20
51739;DHT22;37815;52.692;6.226;2022-07-18T18:49:05;26.70;68.80
51739;DHT22;37815;52.692;6.226;2022-07-18T18:54:06;26.60;69.80
51739;DHT22;37815;52.692;6.226;2022-07-18T18:59:08;26.40;70.60
51739;DHT22;37815;52.692;6.226;2022-07-18T19:04:09;26.40;71.70
51739;DHT22;37815;52.692;6.226;2022-07-18T19:09:11;26.20;72.10
51739;DHT22;37815;52.692;6.226;2022-07-18T19:14:12;26.10;73.10
51739;DHT22;37815;52.692;6.226;2022-07-18T19:19:13;25.90;73.80
51739;DHT22;37815;52.692;6.226;2022-07-18T19:24:14;25.80;74.40
51739;DHT22;37815;52.692;6.226;2022-07-18T19:29:14;25.70;75.00
51739;DHT22;37815;52.692;6.226;2022-07-18T19:34:15;25.50;75.50
51739;DHT22;37815;52.692;6.226;2022-07-18T19:39:17;25.50;76.30
51739;DHT22;37815;52.692;6.226;2022-07-18T19:44:17;25.30;76.90
51739;DHT22;37815;52.692;6.226;2022-07-18T19:49:18;25.20;77.40
51739;DHT22;37815;52.692;6.226;2022-07-18T19:54:19;25.00;78.10
51739;DHT22;37815;52.692;6.226;2022-07-18T19:59:19;24.90;78.30
51739;DHT22;37815;52.692;6.226;2022-07-18T20:04:20;24.80;79.20
51739;DHT22;37815;52.692;6.226;2022-07-18T20:09:21;24.80;79.00
51739;DHT22;37815;52.692;6.226;2022-07-18T20:14:22;24.70;79.20
51739;DHT22;37815;52.692;6.226;2022-07-18T20:19:23;24.60;79.60
51739;DHT22;37815;52.692;6.226;2022-07-18T20:24:23;24.50;80.00
51739;DHT22;37815;52.692;6.226;2022-07-18T20:29:24;24.40;79.80
51739;DHT22;37815;52.692;6.226;2022-07-18T20:34:25;24.30;79.40
51739;DHT22;37815;52.692;6.226;2022-07-18T20:39:26;24.20;79.40
51739;DHT22;37815;52.692;6.226;2022-07-18T20:44:26;24.10;79.70
51739;DHT22;37815;52.692;6.226;2022-07-18T20:49:27;24.00;79.80
51739;DHT22;37815;52.692;6.226;2022-07-18T20:54:28;24.00;80.50
51739;DHT22;37815;52.692;6.226;2022-07-18T20:59:29;23.90;80.10
51739;DHT22;37815;52.692;6.226;2022-07-18T21:04:29;23.80;80.60
51739;DHT22;37815;52.692;6.226;2022-07-18T21:09:30;23.70;81.00
51739;DHT22;37815;52.692;6.226;2022-07-18T21:14:31;23.60;81.40
51739;DHT22;37815;52.692;6.226;2022-07-18T21:19:50;23.50;81.90
51739;DHT22;37815;52.692;6.226;2022-07-18T21:24:51;23.50;82.20
51739;DHT22;37815;52.692;6.226;2022-07-18T21:29:52;23.50;81.90
51739;DHT22;37815;52.692;6.226;2022-07-18T21:34:53;23.70;81.50
51739;DHT22;37815;52.692;6.226;2022-07-18T21:39:53;23.80;81.10
51739;DHT22;37815;52.692;6.226;2022-07-18T21:44:54;23.90;80.70
51739;DHT22;37815;52.692;6.226;2022-07-18T21:49:56;24.00;80.50
51739;DHT22;37815;52.692;6.226;2022-07-18T21:54:56;24.00;80.20
51739;DHT22;37815;52.692;6.226;2022-07-18T21:59:59;24.10;80.10
51739;DHT22;37815;52.692;6.226;2022-07-18T22:05:00;24.10;79.90
51739;DHT22;37815;52.692;6.226;2022-07-18T22:10:00;24.10;79.80
51739;DHT22;37815;52.692;6.226;2022-07-18T22:15:01;24.10;79.70
51739;DHT22;37815;52.692;6.226;2022-07-18T22:20:03;24.10;79.60
51739;DHT22;37815;52.692;6.226;2022-07-18T22:25:04;24.10;79.60
51739;DHT22;37815;52.692;6.226;2022-07-18T22:30:06;24.10;79.60
51739;DHT22;37815;52.692;6.226;2022-07-18T22:35:09;24.10;79.60
51739;DHT22;37815;52.692;6.226;2022-07-18T22:40:11;24.10;79.60
51739;DHT22;37815;52.692;6.226;2022-07-18T22:45:12;24.10;79.60
51739;DHT22;37815;52.692;6.226;2022-07-18T22:50:13;24.00;79.50
51739;DHT22;37815;52.692;6.226;2022-07-18T22:55:14;24.00;79.50
51739;DHT22;37815;52.692;6.226;2022-07-18T23:00:15;24.00;79.50
51739;DHT22;37815;52.692;6.226;2022-07-18T23:05:17;24.00;79.50
51739;DHT22;37815;52.692;6.226;2022-07-18T23:10:26;24.00;79.50
51739;DHT22;37815;52.692;6.226;2022-07-18T23:15:29;23.90;79.40
51739;DHT22;37815;52.692;6.226;2022-07-18T23:20:30;23.90;79.40
51739;DHT22;37815;52.692;6.226;2022-07-18T23:25:31;23.90;79.40
51739;DHT22;37815;52.692;6.226;2022-07-18T23:30:32;23.90;79.50
51739;DHT22;37815;52.692;6.226;2022-07-18T23:35:33;23.80;79.50
51739;DHT22;37815;52.692;6.226;2022-07-18T23:40:33;23.80;79.50
51739;DHT22;37815;52.692;6.226;2022-07-18T23:45:34;23.70;79.50
51739;DHT22;37815;52.692;6.226;2022-07-18T23:50:35;23.70;79.50
51739;DHT22;37815;52.692;6.226;2022-07-18T23:55:35;23.70;79.60
